createdAt,value
2022-08-29T00:00:17.649Z,16.20
2022-08-29T00:02:47.705Z,16.20
2022-08-29T00:05:18.057Z,16.20
2022-08-29T00:07:46.273Z,16.10
2022-08-29T00:10:15.083Z,16.10
2022-08-29T00:12:44.369Z,16.00
2022-08-29T00:15:13.985Z,16.00
2022-08-29T00:17:44.034Z,15.90
2022-08-29T00:20:15.346Z,15.80
2022-08-29T00:22:45.328Z,15.80
2022-08-29T00:25:14.902Z,15.80
2022-08-29T00:27:44.618Z,15.80
2022-08-29T00:30:19.665Z,15.70
2022-08-29T00:32:47.922Z,15.60
2022-08-29T00:35:17.491Z,15.50
2022-08-29T00:37:47.137Z,15.50
2022-08-29T00:40:17.915Z,15.50
2022-08-29T00:42:46.234Z,15.50
2022-08-29T00:45:17.796Z,15.40
2022-08-29T00:47:51.375Z,15.40
2022-08-29T00:50:27.890Z,15.40
2022-08-29T00:52:58.961Z,15.40
2022-08-29T00:55:31.374Z,15.40
2022-08-29T00:58:03.664Z,15.50
2022-08-29T01:00:33.451Z,15.60
2022-08-29T01:03:02.822Z,15.70
2022-08-29T01:05:30.925Z,15.70
2022-08-29T01:08:00.761Z,15.80
2022-08-29T01:10:46.656Z,15.90
2022-08-29T01:13:15.394Z,15.90
2022-08-29T01:15:47.641Z,16.00
2022-08-29T01:18:16.845Z,16.00
2022-08-29T01:20:56.563Z,16.00
2022-08-29T01:23:33.676Z,16.00
2022-08-29T01:26:04.587Z,16.00
2022-08-29T01:28:35.823Z,16.00
2022-08-29T01:31:06.942Z,16.00
2022-08-29T01:33:40.934Z,15.90
2022-08-29T01:36:12.458Z,15.80
2022-08-29T01:38:41.319Z,15.80
2022-08-29T01:41:12.490Z,15.80
2022-08-29T01:43:43.130Z,15.70
2022-08-29T01:46:12.971Z,15.70
2022-08-29T01:48:43.429Z,15.60
2022-08-29T01:51:12.025Z,15.60
2022-08-29T01:53:40.442Z,15.50
2022-08-29T01:56:16.777Z,15.40
2022-08-29T01:58:46.167Z,15.30
2022-08-29T02:01:16.697Z,15.30
2022-08-29T02:03:45.324Z,15.30
2022-08-29T02:06:13.661Z,15.30
2022-08-29T02:08:44.392Z,15.20
2022-08-29T02:11:16.372Z,15.20
2022-08-29T02:13:47.779Z,15.10
2022-08-29T02:16:16.206Z,15.20
2022-08-29T02:18:45.142Z,15.30
2022-08-29T02:21:17.073Z,15.40
2022-08-29T02:23:46.379Z,15.40
2022-08-29T02:26:15.900Z,15.50
2022-08-29T02:28:47.261Z,15.40
2022-08-29T02:31:16.510Z,15.50
2022-08-29T02:33:44.872Z,15.50
2022-08-29T02:36:12.981Z,15.40
2022-08-29T02:38:42.008Z,15.50
2022-08-29T02:41:13.987Z,15.40
2022-08-29T02:43:44.663Z,15.40
2022-08-29T02:46:16.550Z,15.30
2022-08-29T02:48:47.580Z,15.30
2022-08-29T02:51:24.029Z,15.30
2022-08-29T02:53:52.498Z,15.30
2022-08-29T02:56:21.075Z,15.20
2022-08-29T02:58:50.876Z,15.30
2022-08-29T03:01:19.872Z,15.20
2022-08-29T03:03:48.102Z,15.30
2022-08-29T03:06:16.160Z,15.20
2022-08-29T03:08:44.609Z,15.20
2022-08-29T03:11:12.730Z,15.10
2022-08-29T03:13:40.917Z,15.20
2022-08-29T03:16:11.297Z,15.10
2022-08-29T03:18:39.578Z,15.10
2022-08-29T03:21:15.912Z,15.10
2022-08-29T03:23:44.361Z,15.20
2022-08-29T03:26:15.109Z,15.20
2022-08-29T03:28:43.413Z,15.10
2022-08-29T03:31:13.083Z,15.10
2022-08-29T03:33:41.782Z,15.10
2022-08-29T03:36:13.871Z,15.10
2022-08-29T03:38:43.571Z,15.00
2022-08-29T03:41:13.443Z,15.00
2022-08-29T03:43:41.775Z,14.90
2022-08-29T03:46:09.854Z,14.90
2022-08-29T03:48:39.264Z,14.80
2022-08-29T03:51:07.646Z,14.80
2022-08-29T03:53:35.970Z,14.70
2022-08-29T03:56:06.084Z,14.50
2022-08-29T03:58:34.293Z,14.50
2022-08-29T04:01:02.882Z,14.60
2022-08-29T04:03:31.702Z,14.70
2022-08-29T04:06:01.312Z,14.80
2022-08-29T04:08:29.403Z,14.70
2022-08-29T04:10:57.480Z,14.70
2022-08-29T04:13:26.059Z,14.70
2022-08-29T04:15:54.575Z,14.60
2022-08-29T04:18:22.807Z,14.60
2022-08-29T04:20:50.848Z,14.60
2022-08-29T04:23:20.441Z,14.60
2022-08-29T04:25:48.782Z,14.60
2022-08-29T04:28:17.807Z,14.50
2022-08-29T04:30:51.752Z,14.50
2022-08-29T04:33:23.109Z,14.50
2022-08-29T04:35:51.945Z,14.60
2022-08-29T04:38:21.395Z,14.60
2022-08-29T04:40:49.970Z,14.60
2022-08-29T04:43:20.559Z,14.70
2022-08-29T04:45:55.428Z,14.70
2022-08-29T04:48:23.609Z,14.70
2022-08-29T04:50:56.335Z,14.80
2022-08-29T04:53:26.948Z,14.90
2022-08-29T04:55:58.747Z,14.90
2022-08-29T04:58:27.284Z,15.00
2022-08-29T05:00:55.862Z,15.10
2022-08-29T05:03:24.537Z,15.20
2022-08-29T05:05:57.806Z,15.20
2022-08-29T05:08:27.372Z,15.30
2022-08-29T05:10:55.625Z,15.40
2022-08-29T05:13:24.206Z,15.50
2022-08-29T05:15:54.643Z,15.60
2022-08-29T05:18:23.368Z,15.70
2022-08-29T05:20:51.545Z,15.80
2022-08-29T05:23:20.219Z,15.90
2022-08-29T05:25:57.202Z,15.90
2022-08-29T05:28:25.434Z,15.90
2022-08-29T05:30:53.606Z,16.00
2022-08-29T05:33:22.537Z,16.00
2022-08-29T05:35:50.945Z,16.00
2022-08-29T05:38:19.064Z,16.00
2022-08-29T05:40:47.189Z,15.90
2022-08-29T05:43:16.659Z,15.90
2022-08-29T05:45:44.740Z,15.90
2022-08-29T05:48:14.770Z,15.90
2022-08-29T05:50:44.473Z,16.00
2022-08-29T05:53:16.607Z,16.10
2022-08-29T05:55:45.643Z,16.20
2022-08-29T05:58:14.265Z,16.30
2022-08-29T06:00:46.178Z,16.40
2022-08-29T06:03:15.349Z,16.50
2022-08-29T06:05:43.598Z,16.60
2022-08-29T06:08:11.916Z,16.60
2022-08-29T06:10:45.191Z,16.70
2022-08-29T06:13:14.007Z,16.80
2022-08-29T06:15:46.367Z,16.80
2022-08-29T06:18:14.913Z,16.90
2022-08-29T06:20:43.091Z,16.90
2022-08-29T06:23:14.182Z,16.90
2022-08-29T06:25:42.377Z,17.00
2022-08-29T06:28:10.507Z,17.10
2022-08-29T06:30:38.652Z,17.20
2022-08-29T06:33:10.643Z,17.20
2022-08-29T06:35:38.979Z,17.40
2022-08-29T06:38:09.725Z,17.50
2022-08-29T06:40:41.525Z,17.60
2022-08-29T06:43:09.819Z,17.70
2022-08-29T06:45:41.991Z,17.70
2022-08-29T06:48:12.003Z,17.70
2022-08-29T06:50:45.588Z,17.80
2022-08-29T06:53:26.801Z,17.90
2022-08-29T06:56:05.230Z,17.90
2022-08-29T06:58:33.682Z,18.00
2022-08-29T07:01:07.872Z,18.10
2022-08-29T07:03:40.081Z,18.30
2022-08-29T07:06:09.238Z,18.40
2022-08-29T07:08:42.196Z,18.50
2022-08-29T07:11:22.775Z,18.60
2022-08-29T07:13:52.328Z,18.70
2022-08-29T07:16:20.606Z,18.90
2022-08-29T07:18:52.528Z,18.90
2022-08-29T07:21:22.278Z,19.00
2022-08-29T07:23:50.799Z,19.10
2022-08-29T07:26:21.719Z,19.30
2022-08-29T07:28:50.513Z,19.50
2022-08-29T07:31:22.570Z,19.70
2022-08-29T07:33:54.428Z,19.90
2022-08-29T07:36:30.976Z,20.10
2022-08-29T07:38:59.504Z,20.30
2022-08-29T07:41:28.544Z,20.50
2022-08-29T07:43:56.894Z,20.70
2022-08-29T07:46:26.991Z,20.90
2022-08-29T07:48:59.312Z,21.00
2022-08-29T07:51:27.831Z,21.20
2022-08-29T07:53:56.836Z,21.40
2022-08-29T07:56:27.071Z,21.60
2022-08-29T07:58:56.301Z,21.90
2022-08-29T08:01:25.450Z,22.20
2022-08-29T08:03:54.798Z,22.40
2022-08-29T08:06:28.078Z,22.50
2022-08-29T08:08:56.975Z,22.60
2022-08-29T08:11:26.724Z,22.50
2022-08-29T08:13:55.581Z,22.30
2022-08-29T08:16:26.165Z,22.10
2022-08-29T08:18:57.183Z,22.00
2022-08-29T08:21:27.396Z,22.00
2022-08-29T08:23:55.936Z,21.80
2022-08-29T08:26:24.386Z,21.80
2022-08-29T08:28:53.482Z,21.80
2022-08-29T08:31:24.026Z,21.90
2022-08-29T08:33:53.192Z,21.70
2022-08-29T08:36:24.215Z,21.70
2022-08-29T08:38:57.422Z,21.70
2022-08-29T08:41:42.060Z,21.80
2022-08-29T08:44:29.897Z,21.80
2022-08-29T08:47:08.405Z,22.00
2022-08-29T08:49:46.865Z,22.10
2022-08-29T08:52:20.570Z,22.10
2022-08-29T08:54:57.502Z,22.10
2022-08-29T08:57:39.888Z,22.20
2022-08-29T09:00:13.285Z,22.30
2022-08-29T09:02:52.794Z,22.20
2022-08-29T09:05:37.651Z,22.20
2022-08-29T09:08:19.408Z,22.40
2022-08-29T09:10:59.257Z,22.60
2022-08-29T09:13:41.319Z,22.70
2022-08-29T09:16:16.167Z,22.80
2022-08-29T09:18:49.911Z,22.90
2022-08-29T09:21:40.497Z,23.00
2022-08-29T09:24:18.322Z,23.00
2022-08-29T09:26:47.844Z,23.00
2022-08-29T09:29:21.057Z,23.00
2022-08-29T09:32:07.259Z,22.90
2022-08-29T09:35:04.491Z,22.80
2022-08-29T09:37:31.247Z,22.80
2022-08-29T09:40:06.702Z,22.80
2022-08-29T09:42:39.024Z,23.00
2022-08-29T09:45:20.406Z,23.20
2022-08-29T09:47:48.628Z,23.10
2022-08-29T09:50:24.550Z,23.30
2022-08-29T09:52:54.532Z,23.20
2022-08-29T09:55:29.629Z,23.40
2022-08-29T09:58:04.845Z,23.50
2022-08-29T10:00:37.579Z,23.50
2022-08-29T10:03:10.219Z,23.80
2022-08-29T10:05:44.250Z,24.10
2022-08-29T10:08:29.461Z,23.80
2022-08-29T10:11:00.626Z,23.70
2022-08-29T10:13:39.173Z,23.60
2022-08-29T10:16:17.953Z,23.70
2022-08-29T10:18:50.476Z,24.00
2022-08-29T10:21:32.268Z,23.80
2022-08-29T10:24:18.942Z,23.80
2022-08-29T10:26:57.380Z,23.80
2022-08-29T10:29:37.258Z,23.90
2022-08-29T10:32:17.230Z,24.10
2022-08-29T10:34:59.823Z,24.30
2022-08-29T10:37:38.499Z,24.30
2022-08-29T10:40:16.118Z,24.40
2022-08-29T10:42:48.675Z,24.60
2022-08-29T10:45:28.199Z,24.60
2022-08-29T10:48:04.117Z,24.90
2022-08-29T10:50:44.492Z,25.00
2022-08-29T10:53:17.991Z,25.00
2022-08-29T10:55:53.482Z,25.00
2022-08-29T10:58:39.710Z,24.90
2022-08-29T11:01:22.260Z,24.80
2022-08-29T11:04:01.570Z,24.40
2022-08-29T11:06:40.227Z,24.50
2022-08-29T11:09:11.965Z,24.60
2022-08-29T11:12:01.241Z,25.00
2022-08-29T11:15:08.397Z,25.40
2022-08-29T11:18:03.514Z,25.40
2022-08-29T11:21:11.484Z,25.40
2022-08-29T11:23:58.557Z,25.40
2022-08-29T11:26:55.906Z,25.40
2022-08-29T11:29:51.508Z,25.50
2022-08-29T11:33:03.509Z,25.30
2022-08-29T11:35:47.400Z,25.60
2022-08-29T11:39:17.780Z,26.00
2022-08-29T11:42:49.969Z,26.50
2022-08-29T11:45:36.717Z,26.20
2022-08-29T11:48:59.274Z,26.20
2022-08-29T11:51:56.094Z,26.40
2022-08-29T11:55:30.362Z,26.20
2022-08-29T11:58:40.407Z,25.90
2022-08-29T12:01:58.345Z,25.70
2022-08-29T12:05:00.465Z,25.90
2022-08-29T12:08:33.634Z,26.20
2022-08-29T12:11:43.510Z,25.70
2022-08-29T12:14:59.095Z,25.50
2022-08-29T12:18:01.860Z,25.30
2022-08-29T12:21:16.444Z,25.40
2022-08-29T12:24:29.630Z,25.60
2022-08-29T12:27:04.890Z,25.40
2022-08-29T12:33:38.251Z,25.60
2022-08-29T12:36:32.563Z,26.00
2022-08-29T12:39:40.997Z,25.70
2022-08-29T12:46:17.156Z,25.90
2022-08-29T12:49:00.069Z,26.10
2022-08-29T12:55:48.481Z,26.30
2022-08-29T12:59:13.504Z,26.20
2022-08-29T13:02:18.879Z,26.20
2022-08-29T13:05:00.303Z,25.90
2022-08-29T13:08:00.950Z,25.60
2022-08-29T13:11:00.855Z,25.60
2022-08-29T13:13:52.450Z,25.60
2022-08-29T13:17:00.379Z,25.80
2022-08-29T13:20:00.317Z,25.40
2022-08-29T13:23:29.468Z,25.60
2022-08-29T13:26:17.493Z,26.00
2022-08-29T13:28:55.103Z,25.90
2022-08-29T13:31:52.723Z,25.80
2022-08-29T13:34:36.280Z,25.70
2022-08-29T13:37:52.473Z,26.00
2022-08-29T13:40:58.850Z,26.00
2022-08-29T13:43:47.416Z,25.80
2022-08-29T13:46:39.402Z,25.80
2022-08-29T13:49:35.687Z,26.00
2022-08-29T13:52:45.641Z,26.00
2022-08-29T13:55:28.132Z,26.10
2022-08-29T14:01:29.496Z,25.80
2022-08-29T14:07:26.929Z,25.70
2022-08-29T14:10:11.993Z,25.80
2022-08-29T14:13:02.136Z,25.60
2022-08-29T14:19:13.079Z,25.60
2022-08-29T14:22:05.104Z,25.50
2022-08-29T14:24:58.246Z,25.40
2022-08-29T14:27:53.838Z,25.40
2022-08-29T14:30:36.826Z,25.30
2022-08-29T14:36:48.163Z,25.20
2022-08-29T14:39:38.147Z,25.30
2022-08-29T14:42:21.541Z,25.40
2022-08-29T14:45:16.625Z,25.50
2022-08-29T14:47:52.534Z,25.60
2022-08-29T14:50:36.200Z,25.60
2022-08-29T14:53:22.215Z,25.50
2022-08-29T14:56:11.764Z,25.20
2022-08-29T14:59:08.700Z,25.40
2022-08-29T15:02:00.486Z,25.40
2022-08-29T15:04:51.195Z,25.50
2022-08-29T15:07:51.728Z,25.50
2022-08-29T15:10:48.376Z,25.30
2022-08-29T15:13:32.202Z,25.30
2022-08-29T15:20:37.393Z,25.50
2022-08-29T15:23:07.317Z,25.40
2022-08-29T15:25:36.198Z,25.40
2022-08-29T15:28:05.521Z,25.40
2022-08-29T15:30:34.023Z,25.20
2022-08-29T15:33:02.871Z,25.20
2022-08-29T15:35:31.262Z,25.30
2022-08-29T15:38:00.824Z,25.20
2022-08-29T15:40:29.166Z,25.10
2022-08-29T15:42:57.218Z,25.10
2022-08-29T15:45:25.274Z,25.00
2022-08-29T15:47:54.067Z,25.10
2022-08-29T15:50:22.826Z,25.00
2022-08-29T15:52:55.601Z,24.90
2022-08-29T15:55:25.724Z,24.80
2022-08-29T15:57:53.991Z,24.80
2022-08-29T16:00:30.679Z,24.90
2022-08-29T16:03:03.562Z,24.80
2022-08-29T16:05:33.737Z,24.80
2022-08-29T16:08:02.508Z,24.80
2022-08-29T16:10:33.013Z,24.80
2022-08-29T16:13:04.173Z,24.80
2022-08-29T16:15:33.762Z,24.80
2022-08-29T16:18:02.839Z,24.70
2022-08-29T16:20:32.002Z,24.70
2022-08-29T16:23:00.504Z,24.70
2022-08-29T16:25:29.418Z,24.80
2022-08-29T16:27:59.355Z,24.80
2022-08-29T16:30:27.926Z,24.70
2022-08-29T16:32:56.258Z,24.70
2022-08-29T16:35:26.071Z,24.70
2022-08-29T16:38:03.122Z,24.70
2022-08-29T16:40:32.235Z,24.80
2022-08-29T16:43:02.637Z,24.80
2022-08-29T16:45:31.754Z,24.80
2022-08-29T16:48:00.034Z,24.80
2022-08-29T16:50:29.637Z,24.80
2022-08-29T16:52:57.837Z,24.90
2022-08-29T16:55:26.705Z,24.80
2022-08-29T16:58:12.738Z,24.70
2022-08-29T17:00:44.397Z,24.70
2022-08-29T17:03:19.415Z,24.50
2022-08-29T17:05:48.721Z,24.60
2022-08-29T17:08:16.298Z,24.60
2022-08-29T17:10:43.543Z,24.50
2022-08-29T17:13:10.443Z,24.50
2022-08-29T17:15:37.564Z,24.50
2022-08-29T17:18:07.917Z,24.40
2022-08-29T17:20:37.741Z,24.30
2022-08-29T17:23:10.313Z,24.30
2022-08-29T17:25:39.070Z,24.20
2022-08-29T17:28:25.012Z,24.10
2022-08-29T17:30:57.380Z,23.90
2022-08-29T17:33:28.044Z,23.80
2022-08-29T17:35:56.237Z,23.70
2022-08-29T17:38:26.901Z,23.60
2022-08-29T17:40:57.001Z,23.60
2022-08-29T17:43:27.465Z,23.50
2022-08-29T17:45:57.348Z,23.50
2022-08-29T17:48:26.923Z,23.40
2022-08-29T17:50:55.047Z,23.30
2022-08-29T17:53:25.049Z,23.30
2022-08-29T17:55:53.207Z,23.20
2022-08-29T17:58:23.819Z,23.10
2022-08-29T18:00:52.446Z,23.00
2022-08-29T18:03:20.655Z,22.90
2022-08-29T18:05:50.337Z,22.90
2022-08-29T18:08:20.673Z,22.80
2022-08-29T18:10:48.713Z,22.80
2022-08-29T18:13:21.753Z,22.70
2022-08-29T18:15:52.574Z,22.60
2022-08-29T18:18:21.127Z,22.50
2022-08-29T18:20:50.830Z,22.40
2022-08-29T18:23:18.943Z,22.20
2022-08-29T18:25:47.875Z,22.10
2022-08-29T18:28:18.237Z,22.10
2022-08-29T18:30:46.534Z,22.00
2022-08-29T18:33:14.652Z,22.00
2022-08-29T18:35:42.803Z,21.80
2022-08-29T18:38:12.261Z,21.80
2022-08-29T18:40:40.491Z,21.80
2022-08-29T18:43:10.018Z,21.80
2022-08-29T18:45:40.182Z,21.80
2022-08-29T18:48:09.646Z,21.70
2022-08-29T18:50:38.104Z,21.70
2022-08-29T18:53:12.927Z,21.60
2022-08-29T18:55:46.082Z,21.50
2022-08-29T18:58:18.047Z,21.40
2022-08-29T19:00:46.454Z,21.30
2022-08-29T19:03:15.808Z,21.30
2022-08-29T19:05:46.810Z,21.20
2022-08-29T19:08:16.472Z,21.10
2022-08-29T19:10:46.354Z,21.00
2022-08-29T19:13:15.946Z,21.00
2022-08-29T19:15:45.290Z,20.90
2022-08-29T19:18:14.330Z,20.80
2022-08-29T19:21:01.136Z,20.80
2022-08-29T19:23:30.728Z,20.80
2022-08-29T19:25:58.823Z,20.70
2022-08-29T19:28:27.528Z,20.60
2022-08-29T19:30:55.823Z,20.60
2022-08-29T19:33:24.494Z,20.50
2022-08-29T19:35:53.666Z,20.50
2022-08-29T19:38:23.667Z,20.30
2022-08-29T19:40:56.494Z,20.10
2022-08-29T19:43:27.420Z,19.90
2022-08-29T19:45:56.214Z,19.70
2022-08-29T19:48:24.606Z,19.60
2022-08-29T19:50:54.211Z,19.50
2022-08-29T19:53:26.379Z,19.40
2022-08-29T19:55:56.852Z,19.30
2022-08-29T19:58:32.025Z,19.20
2022-08-29T20:01:01.678Z,19.20
2022-08-29T20:03:30.040Z,19.10
2022-08-29T20:05:59.511Z,19.10
2022-08-29T20:08:29.226Z,19.10
2022-08-29T20:11:03.370Z,19.00
2022-08-29T20:13:36.221Z,19.00
2022-08-29T20:16:12.351Z,18.90
2022-08-29T20:18:41.544Z,18.80
2022-08-29T20:21:09.835Z,18.80
2022-08-29T20:23:41.412Z,18.70
2022-08-29T20:26:19.376Z,18.60
2022-08-29T20:28:48.200Z,18.40
2022-08-29T20:31:16.512Z,18.40
2022-08-29T20:33:47.506Z,18.30
2022-08-29T20:36:32.955Z,18.20
2022-08-29T20:39:01.067Z,18.20
2022-08-29T20:41:31.580Z,18.10
2022-08-29T20:44:06.772Z,18.00
2022-08-29T20:46:35.122Z,18.00
2022-08-29T20:49:03.189Z,18.10
2022-08-29T20:51:31.314Z,18.10
2022-08-29T20:53:59.519Z,18.00
2022-08-29T20:56:27.918Z,17.90
2022-08-29T20:58:57.390Z,17.90
2022-08-29T21:01:25.877Z,17.90
2022-08-29T21:04:11.823Z,17.90
2022-08-29T21:06:39.907Z,17.80
2022-08-29T21:09:09.046Z,17.70
2022-08-29T21:11:37.266Z,17.70
2022-08-29T21:14:06.612Z,17.60
2022-08-29T21:16:36.128Z,17.50
2022-08-29T21:19:09.668Z,17.50
2022-08-29T21:21:39.601Z,17.40
2022-08-29T21:24:09.687Z,17.40
2022-08-29T21:26:38.559Z,17.40
2022-08-29T21:29:09.729Z,17.40
2022-08-29T21:31:39.234Z,17.40
2022-08-29T21:34:10.389Z,17.30
2022-08-29T21:36:39.322Z,17.20
2022-08-29T21:39:09.045Z,17.20
2022-08-29T21:41:40.682Z,17.20
2022-08-29T21:44:12.430Z,17.10
2022-08-29T21:46:43.368Z,17.10
2022-08-29T21:49:13.316Z,17.10
2022-08-29T21:51:41.821Z,17.00
2022-08-29T21:54:13.729Z,17.00
2022-08-29T21:56:42.736Z,17.10
2022-08-29T21:59:14.047Z,17.10
2022-08-29T22:01:46.418Z,17.10
2022-08-29T22:04:28.267Z,17.10
2022-08-29T22:06:59.440Z,17.00
2022-08-29T22:09:30.085Z,17.00
2022-08-29T22:11:58.379Z,16.90
2022-08-29T22:14:42.739Z,16.80
2022-08-29T22:17:10.866Z,16.70
2022-08-29T22:19:39.514Z,16.70
2022-08-29T22:22:09.634Z,16.70
2022-08-29T22:24:37.706Z,16.70
2022-08-29T22:27:06.066Z,16.70
2022-08-29T22:29:35.527Z,16.70
2022-08-29T22:32:04.031Z,16.70
2022-08-29T22:34:32.146Z,16.70
2022-08-29T22:37:00.236Z,16.70
2022-08-29T22:39:28.669Z,16.70
2022-08-29T22:41:56.778Z,16.70
2022-08-29T22:47:14.864Z,16.70
2022-08-29T22:49:42.984Z,16.70
2022-08-29T22:52:11.653Z,16.60
2022-08-29T22:54:40.220Z,16.60
2022-08-29T22:57:10.808Z,16.60
2022-08-29T22:59:39.635Z,16.50
2022-08-29T23:02:08.908Z,16.40
2022-08-29T23:04:39.390Z,16.40
2022-08-29T23:07:13.955Z,16.30
2022-08-29T23:10:02.232Z,16.20
2022-08-29T23:12:45.848Z,16.10
2022-08-29T23:15:29.150Z,16.00
2022-08-29T23:18:02.023Z,15.90
2022-08-29T23:20:34.119Z,15.80
2022-08-29T23:23:02.247Z,15.70
2022-08-29T23:25:32.686Z,15.70
2022-08-29T23:28:01.039Z,15.70
2022-08-29T23:30:29.308Z,15.70
2022-08-29T23:32:57.414Z,15.70
2022-08-29T23:35:25.887Z,15.70
2022-08-29T23:37:56.111Z,15.70
2022-08-29T23:40:24.240Z,15.70
2022-08-29T23:42:52.391Z,15.60
2022-08-29T23:45:20.678Z,15.60
2022-08-29T23:47:48.770Z,15.60
2022-08-29T23:50:17.098Z,15.60
2022-08-29T23:52:46.284Z,15.50
2022-08-29T23:55:17.336Z,15.50
2022-08-29T23:57:45.828Z,15.40
